sensor_id;sensor_type;location;lat;lon;timestamp;temperature;humidity
24902;DHT22;31328;51.402;0.016;2022-11-18T00:00:29;9.90;99.90
24902;DHT22;31328;51.402;0.016;2022-11-18T00:02:55;9.90;99.90
24902;DHT22;31328;51.402;0.016;2022-11-18T00:05:21;9.90;99.90
24902;DHT22;31328;51.402;0.016;2022-11-18T00:07:48;9.90;99.90
24902;DHT22;31328;51.402;0.016;2022-11-18T00:10:14;9.90;99.90
24902;DHT22;31328;51.402;0.016;2022-11-18T00:12:41;9.90;99.90
24902;DHT22;31328;51.402;0.016;2022-11-18T00:15:26;9.90;99.90
24902;DHT22;31328;51.402;0.016;2022-11-18T00:17:52;9.90;99.90
24902;DHT22;31328;51.402;0.016;2022-11-18T00:20:18;9.90;99.90
24902;DHT22;31328;51.402;0.016;2022-11-18T00:22:45;9.90;99.90
24902;DHT22;31328;51.402;0.016;2022-11-18T00:25:11;10.00;99.90
24902;DHT22;31328;51.402;0.016;2022-11-18T00:27:37;10.00;99.90
24902;DHT22;31328;51.402;0.016;2022-11-18T00:30:04;10.00;99.90
24902;DHT22;31328;51.402;0.016;2022-11-18T00:32:30;9.90;99.90
24902;DHT22;31328;51.402;0.016;2022-11-18T00:34:57;9.90;99.90
24902;DHT22;31328;51.402;0.016;2022-11-18T00:37:23;9.90;99.90
24902;DHT22;31328;51.402;0.016;2022-11-18T00:39:49;9.90;99.90
24902;DHT22;31328;51.402;0.016;2022-11-18T00:42:15;9.90;99.90
24902;DHT22;31328;51.402;0.016;2022-11-18T00:45:00;9.90;99.90
24902;DHT22;31328;51.402;0.016;2022-11-18T00:47:26;9.90;99.90
24902;DHT22;31328;51.402;0.016;2022-11-18T00:49:53;9.80;99.90
24902;DHT22;31328;51.402;0.016;2022-11-18T00:52:19;9.80;99.90
24902;DHT22;31328;51.402;0.016;2022-11-18T00:54:45;9.80;99.90
24902;DHT22;31328;51.402;0.016;2022-11-18T00:57:11;9.80;99.90
24902;DHT22;31328;51.402;0.016;2022-11-18T00:59:38;9.80;99.90
24902;DHT22;31328;51.402;0.016;2022-11-18T01:02:04;9.80;99.90
24902;DHT22;31328;51.402;0.016;2022-11-18T01:04:30;9.80;99.90
24902;DHT22;31328;51.402;0.016;2022-11-18T01:06:56;9.80;99.90
24902;DHT22;31328;51.402;0.016;2022-11-18T01:09:23;9.80;99.90
24902;DHT22;31328;51.402;0.016;2022-11-18T01:11:49;9.80;99.90
24902;DHT22;31328;51.402;0.016;2022-11-18T01:14:48;9.80;99.90
24902;DHT22;31328;51.402;0.016;2022-11-18T01:17:14;9.80;99.90
24902;DHT22;31328;51.402;0.016;2022-11-18T01:19:40;9.80;99.90
24902;DHT22;31328;51.402;0.016;2022-11-18T01:22:07;9.80;99.90
24902;DHT22;31328;51.402;0.016;2022-11-18T01:24:33;9.80;99.90
24902;DHT22;31328;51.402;0.016;2022-11-18T01:27:00;9.80;99.90
24902;DHT22;31328;51.402;0.016;2022-11-18T01:29:26;9.80;99.90
24902;DHT22;31328;51.402;0.016;2022-11-18T01:31:53;9.80;99.90
24902;DHT22;31328;51.402;0.016;2022-11-18T01:34:19;9.80;99.90
24902;DHT22;31328;51.402;0.016;2022-11-18T01:36:45;9.80;99.90
24902;DHT22;31328;51.402;0.016;2022-11-18T01:39:11;9.90;99.90
24902;DHT22;31328;51.402;0.016;2022-11-18T01:41:38;9.80;99.90
24902;DHT22;31328;51.402;0.016;2022-11-18T01:47:09;9.90;99.90
24902;DHT22;31328;51.402;0.016;2022-11-18T01:49:35;9.90;99.90
24902;DHT22;31328;51.402;0.016;2022-11-18T01:52:01;9.90;99.90
24902;DHT22;31328;51.402;0.016;2022-11-18T01:54:35;9.90;99.90
24902;DHT22;31328;51.402;0.016;2022-11-18T01:57:06;9.90;99.90
24902;DHT22;31328;51.402;0.016;2022-11-18T01:59:36;9.90;99.90
24902;DHT22;31328;51.402;0.016;2022-11-18T02:02:08;9.90;99.90
24902;DHT22;31328;51.402;0.016;2022-11-18T02:04:42;9.90;99.90
24902;DHT22;31328;51.402;0.016;2022-11-18T02:07:09;9.90;99.90
24902;DHT22;31328;51.402;0.016;2022-11-18T02:09:37;9.90;99.90
24902;DHT22;31328;51.402;0.016;2022-11-18T02:12:04;9.90;99.90
24902;DHT22;31328;51.402;0.016;2022-11-18T02:14:34;9.90;99.90
24902;DHT22;31328;51.402;0.016;2022-11-18T02:25:07;9.90;99.90
24902;DHT22;31328;51.402;0.016;2022-11-18T02:30:28;9.80;99.90
24902;DHT22;31328;51.402;0.016;2022-11-18T02:33:14;9.80;99.90
24902;DHT22;31328;51.402;0.016;2022-11-18T02:35:46;9.80;99.90
24902;DHT22;31328;51.402;0.016;2022-11-18T02:38:22;9.80;99.90
24902;DHT22;31328;51.402;0.016;2022-11-18T02:40:58;9.80;99.90
24902;DHT22;31328;51.402;0.016;2022-11-18T02:43:33;9.80;99.90
24902;DHT22;31328;51.402;0.016;2022-11-18T02:46:05;9.80;99.90
24902;DHT22;31328;51.402;0.016;2022-11-18T02:48:35;9.80;99.90
24902;DHT22;31328;51.402;0.016;2022-11-18T02:51:04;9.80;99.90
24902;DHT22;31328;51.402;0.016;2022-11-18T02:53:34;9.70;99.90
24902;DHT22;31328;51.402;0.016;2022-11-18T02:56:01;9.70;99.90
24902;DHT22;31328;51.402;0.016;2022-11-18T02:58:28;9.80;99.90
24902;DHT22;31328;51.402;0.016;2022-11-18T03:00:59;9.70;99.90
24902;DHT22;31328;51.402;0.016;2022-11-18T03:03:27;9.70;99.90
24902;DHT22;31328;51.402;0.016;2022-11-18T03:06:23;9.70;99.90
24902;DHT22;31328;51.402;0.016;2022-11-18T03:09:12;9.70;99.90
24902;DHT22;31328;51.402;0.016;2022-11-18T03:17:01;9.60;99.90
24902;DHT22;31328;51.402;0.016;2022-11-18T03:20:03;9.60;99.90
24902;DHT22;31328;51.402;0.016;2022-11-18T03:22:42;9.60;99.90
24902;DHT22;31328;51.402;0.016;2022-11-18T03:25:13;9.60;99.90
24902;DHT22;31328;51.402;0.016;2022-11-18T03:27:48;9.60;99.90
24902;DHT22;31328;51.402;0.016;2022-11-18T03:30:19;9.60;99.90
24902;DHT22;31328;51.402;0.016;2022-11-18T03:32:52;9.50;99.90
24902;DHT22;31328;51.402;0.016;2022-11-18T03:35:26;9.50;99.90
24902;DHT22;31328;51.402;0.016;2022-11-18T03:38:02;9.60;99.90
24902;DHT22;31328;51.402;0.016;2022-11-18T03:40:31;9.50;99.90
24902;DHT22;31328;51.402;0.016;2022-11-18T03:43:18;9.60;99.90
24902;DHT22;31328;51.402;0.016;2022-11-18T03:45:49;9.50;99.90
24902;DHT22;31328;51.402;0.016;2022-11-18T03:48:18;9.50;99.90
24902;DHT22;31328;51.402;0.016;2022-11-18T03:50:49;9.50;99.90
24902;DHT22;31328;51.402;0.016;2022-11-18T03:53:17;9.50;99.90
24902;DHT22;31328;51.402;0.016;2022-11-18T03:55:48;9.50;99.90
24902;DHT22;31328;51.402;0.016;2022-11-18T03:58:30;9.50;99.90
24902;DHT22;31328;51.402;0.016;2022-11-18T04:01:04;9.60;99.90
24902;DHT22;31328;51.402;0.016;2022-11-18T04:03:34;9.50;99.90
24902;DHT22;31328;51.402;0.016;2022-11-18T04:06:23;9.50;99.90
24902;DHT22;31328;51.402;0.016;2022-11-18T04:08:54;9.60;99.90
24902;DHT22;31328;51.402;0.016;2022-11-18T04:11:27;9.60;99.90
24902;DHT22;31328;51.402;0.016;2022-11-18T04:14:15;9.60;99.90
24902;DHT22;31328;51.402;0.016;2022-11-18T04:16:44;9.60;99.90
24902;DHT22;31328;51.402;0.016;2022-11-18T04:19:10;9.60;99.90
24902;DHT22;31328;51.402;0.016;2022-11-18T04:21:37;9.60;99.90
24902;DHT22;31328;51.402;0.016;2022-11-18T04:24:03;9.60;99.90
24902;DHT22;31328;51.402;0.016;2022-11-18T04:26:29;9.60;99.90
24902;DHT22;31328;51.402;0.016;2022-11-18T04:28:56;9.50;99.90
24902;DHT22;31328;51.402;0.016;2022-11-18T04:31:22;9.60;99.90
24902;DHT22;31328;51.402;0.016;2022-11-18T04:33:49;9.60;99.90
24902;DHT22;31328;51.402;0.016;2022-11-18T04:36:15;9.60;99.90
24902;DHT22;31328;51.402;0.016;2022-11-18T04:38:41;9.50;99.90
24902;DHT22;31328;51.402;0.016;2022-11-18T04:41:08;9.60;99.90
24902;DHT22;31328;51.402;0.016;2022-11-18T04:43:34;9.50;99.90
24902;DHT22;31328;51.402;0.016;2022-11-18T04:46:00;9.50;99.90
24902;DHT22;31328;51.402;0.016;2022-11-18T04:48:26;9.50;99.90
24902;DHT22;31328;51.402;0.016;2022-11-18T04:50:56;9.50;99.90
24902;DHT22;31328;51.402;0.016;2022-11-18T04:53:22;9.50;99.90
24902;DHT22;31328;51.402;0.016;2022-11-18T04:55:48;9.50;99.90
24902;DHT22;31328;51.402;0.016;2022-11-18T04:58:15;9.50;99.90
24902;DHT22;31328;51.402;0.016;2022-11-18T05:00:41;9.50;99.90
24902;DHT22;31328;51.402;0.016;2022-11-18T05:03:07;9.50;99.90
24902;DHT22;31328;51.402;0.016;2022-11-18T05:05:34;9.50;99.90
24902;DHT22;31328;51.402;0.016;2022-11-18T05:08:00;9.50;99.90
24902;DHT22;31328;51.402;0.016;2022-11-18T05:10:26;9.50;99.90
24902;DHT22;31328;51.402;0.016;2022-11-18T05:12:52;9.50;99.90
24902;DHT22;31328;51.402;0.016;2022-11-18T05:15:21;9.50;99.90
24902;DHT22;31328;51.402;0.016;2022-11-18T05:17:49;9.50;99.90
24902;DHT22;31328;51.402;0.016;2022-11-18T05:20:16;9.50;99.90
24902;DHT22;31328;51.402;0.016;2022-11-18T05:22:42;9.50;99.90
24902;DHT22;31328;51.402;0.016;2022-11-18T05:25:08;9.60;99.90
24902;DHT22;31328;51.402;0.016;2022-11-18T05:27:35;9.60;99.90
24902;DHT22;31328;51.402;0.016;2022-11-18T05:30:01;9.60;99.90
24902;DHT22;31328;51.402;0.016;2022-11-18T05:32:27;9.60;99.90
24902;DHT22;31328;51.402;0.016;2022-11-18T05:34:54;9.60;99.90
24902;DHT22;31328;51.402;0.016;2022-11-18T05:37:20;9.60;99.90
24902;DHT22;31328;51.402;0.016;2022-11-18T05:39:46;9.60;99.90
24902;DHT22;31328;51.402;0.016;2022-11-18T05:42:12;9.60;99.90
24902;DHT22;31328;51.402;0.016;2022-11-18T05:44:57;9.60;99.90
24902;DHT22;31328;51.402;0.016;2022-11-18T05:47:24;9.60;99.90
24902;DHT22;31328;51.402;0.016;2022-11-18T05:49:50;9.60;99.90
24902;DHT22;31328;51.402;0.016;2022-11-18T05:52:16;9.60;99.90
24902;DHT22;31328;51.402;0.016;2022-11-18T05:54:47;9.60;99.90
24902;DHT22;31328;51.402;0.016;2022-11-18T05:57:13;9.60;99.90
24902;DHT22;31328;51.402;0.016;2022-11-18T05:59:40;9.60;99.90
24902;DHT22;31328;51.402;0.016;2022-11-18T06:02:12;9.60;99.90
24902;DHT22;31328;51.402;0.016;2022-11-18T06:04:46;9.60;99.90
24902;DHT22;31328;51.402;0.016;2022-11-18T06:07:36;9.60;99.90
24902;DHT22;31328;51.402;0.016;2022-11-18T06:10:04;9.60;99.90
24902;DHT22;31328;51.402;0.016;2022-11-18T06:12:34;9.60;99.90
24902;DHT22;31328;51.402;0.016;2022-11-18T06:15:26;9.60;99.90
24902;DHT22;31328;51.402;0.016;2022-11-18T06:18:00;9.60;99.90
24902;DHT22;31328;51.402;0.016;2022-11-18T06:20:27;9.60;99.90
24902;DHT22;31328;51.402;0.016;2022-11-18T06:22:55;9.60;99.90
24902;DHT22;31328;51.402;0.016;2022-11-18T06:25:22;9.70;99.90
24902;DHT22;31328;51.402;0.016;2022-11-18T06:27:50;9.70;99.90
24902;DHT22;31328;51.402;0.016;2022-11-18T06:30:17;9.70;99.90
24902;DHT22;31328;51.402;0.016;2022-11-18T06:32:43;9.70;99.90
24902;DHT22;31328;51.402;0.016;2022-11-18T06:35:10;9.70;99.90
24902;DHT22;31328;51.402;0.016;2022-11-18T06:37:36;9.70;99.90
24902;DHT22;31328;51.402;0.016;2022-11-18T06:40:03;9.70;99.90
24902;DHT22;31328;51.402;0.016;2022-11-18T06:42:29;9.60;99.90
24902;DHT22;31328;51.402;0.016;2022-11-18T06:45:15;9.60;99.90
24902;DHT22;31328;51.402;0.016;2022-11-18T06:47:41;9.60;99.90
24902;DHT22;31328;51.402;0.016;2022-11-18T06:50:08;9.60;99.90
24902;DHT22;31328;51.402;0.016;2022-11-18T06:52:34;9.60;99.90
24902;DHT22;31328;51.402;0.016;2022-11-18T06:55:00;9.60;99.90
24902;DHT22;31328;51.402;0.016;2022-11-18T06:57:27;9.60;99.90
24902;DHT22;31328;51.402;0.016;2022-11-18T06:59:54;9.60;99.90
24902;DHT22;31328;51.402;0.016;2022-11-18T07:02:20;9.60;99.90
24902;DHT22;31328;51.402;0.016;2022-11-18T07:04:46;9.60;99.90
24902;DHT22;31328;51.402;0.016;2022-11-18T07:07:13;9.60;99.90
24902;DHT22;31328;51.402;0.016;2022-11-18T07:09:39;9.60;99.90
24902;DHT22;31328;51.402;0.016;2022-11-18T07:12:05;9.60;99.90
24902;DHT22;31328;51.402;0.016;2022-11-18T07:14:32;9.60;99.90
24902;DHT22;31328;51.402;0.016;2022-11-18T07:16:58;9.60;99.90
24902;DHT22;31328;51.402;0.016;2022-11-18T07:19:25;9.60;99.90
24902;DHT22;31328;51.402;0.016;2022-11-18T07:21:51;9.60;99.90
24902;DHT22;31328;51.402;0.016;2022-11-18T07:24:17;9.60;99.90
24902;DHT22;31328;51.402;0.016;2022-11-18T07:26:43;9.60;99.90
24902;DHT22;31328;51.402;0.016;2022-11-18T07:29:10;9.50;99.90
24902;DHT22;31328;51.402;0.016;2022-11-18T07:31:36;9.50;99.90
24902;DHT22;31328;51.402;0.016;2022-11-18T07:34:05;9.50;99.90
24902;DHT22;31328;51.402;0.016;2022-11-18T07:36:31;9.40;99.90
24902;DHT22;31328;51.402;0.016;2022-11-18T07:38:58;9.40;99.90
24902;DHT22;31328;51.402;0.016;2022-11-18T07:41:27;9.40;99.90
24902;DHT22;31328;51.402;0.016;2022-11-18T07:43:56;9.40;99.90
24902;DHT22;31328;51.402;0.016;2022-11-18T07:46:26;9.40;99.90
24902;DHT22;31328;51.402;0.016;2022-11-18T07:48:56;9.40;99.90
24902;DHT22;31328;51.402;0.016;2022-11-18T07:51:28;9.40;99.90
24902;DHT22;31328;51.402;0.016;2022-11-18T07:53:55;9.40;99.90
24902;DHT22;31328;51.402;0.016;2022-11-18T07:56:21;9.40;99.90
24902;DHT22;31328;51.402;0.016;2022-11-18T07:58:54;9.40;99.90
24902;DHT22;31328;51.402;0.016;2022-11-18T08:01:23;9.40;99.90
24902;DHT22;31328;51.402;0.016;2022-11-18T08:03:49;9.40;99.90
24902;DHT22;31328;51.402;0.016;2022-11-18T08:06:17;9.40;99.90
24902;DHT22;31328;51.402;0.016;2022-11-18T08:08:44;9.50;99.90
24902;DHT22;31328;51.402;0.016;2022-11-18T08:11:16;9.50;99.90
24902;DHT22;31328;51.402;0.016;2022-11-18T08:13:43;9.50;99.90
24902;DHT22;31328;51.402;0.016;2022-11-18T08:16:27;9.50;99.90
24902;DHT22;31328;51.402;0.016;2022-11-18T08:18:54;9.50;99.90
24902;DHT22;31328;51.402;0.016;2022-11-18T08:21:21;9.50;99.90
24902;DHT22;31328;51.402;0.016;2022-11-18T08:23:52;9.60;99.90
24902;DHT22;31328;51.402;0.016;2022-11-18T08:26:19;9.60;99.90
24902;DHT22;31328;51.402;0.016;2022-11-18T08:28:47;9.60;99.90
24902;DHT22;31328;51.402;0.016;2022-11-18T08:31:21;9.60;99.90
24902;DHT22;31328;51.402;0.016;2022-11-18T08:34:00;9.60;99.90
24902;DHT22;31328;51.402;0.016;2022-11-18T08:36:30;9.60;99.90
24902;DHT22;31328;51.402;0.016;2022-11-18T08:38:57;9.60;99.90
24902;DHT22;31328;51.402;0.016;2022-11-18T08:41:31;9.60;99.90
24902;DHT22;31328;51.402;0.016;2022-11-18T08:43:59;9.70;99.90
24902;DHT22;31328;51.402;0.016;2022-11-18T08:46:26;9.70;99.90
24902;DHT22;31328;51.402;0.016;2022-11-18T08:48:52;9.70;99.90
24902;DHT22;31328;51.402;0.016;2022-11-18T08:51:18;9.70;99.90
24902;DHT22;31328;51.402;0.016;2022-11-18T08:53:45;9.70;99.90
24902;DHT22;31328;51.402;0.016;2022-11-18T08:56:18;9.70;99.90
24902;DHT22;31328;51.402;0.016;2022-11-18T08:58:45;9.80;99.90
24902;DHT22;31328;51.402;0.016;2022-11-18T09:01:12;9.80;99.90
24902;DHT22;31328;51.402;0.016;2022-11-18T09:03:39;9.80;99.90
24902;DHT22;31328;51.402;0.016;2022-11-18T09:06:10;9.90;99.90
24902;DHT22;31328;51.402;0.016;2022-11-18T09:08:38;9.90;99.90
24902;DHT22;31328;51.402;0.016;2022-11-18T09:11:13;9.90;99.90
24902;DHT22;31328;51.402;0.016;2022-11-18T09:13:40;10.00;99.90
24902;DHT22;31328;51.402;0.016;2022-11-18T09:16:06;10.00;99.90
24902;DHT22;31328;51.402;0.016;2022-11-18T09:18:32;10.00;99.90
24902;DHT22;31328;51.402;0.016;2022-11-18T09:21:05;10.10;99.90
24902;DHT22;31328;51.402;0.016;2022-11-18T09:23:33;10.10;99.90
24902;DHT22;31328;51.402;0.016;2022-11-18T09:26:12;10.10;99.90
24902;DHT22;31328;51.402;0.016;2022-11-18T09:28:38;10.10;99.90
24902;DHT22;31328;51.402;0.016;2022-11-18T09:31:06;10.10;99.90
24902;DHT22;31328;51.402;0.016;2022-11-18T09:33:34;10.10;99.90
24902;DHT22;31328;51.402;0.016;2022-11-18T09:36:00;10.00;99.90
24902;DHT22;31328;51.402;0.016;2022-11-18T09:38:30;10.10;99.90
24902;DHT22;31328;51.402;0.016;2022-11-18T09:41:35;10.10;99.90
24902;DHT22;31328;51.402;0.016;2022-11-18T09:44:20;10.10;99.90
24902;DHT22;31328;51.402;0.016;2022-11-18T09:49:34;10.10;99.90
24902;DHT22;31328;51.402;0.016;2022-11-18T09:54:34;10.10;99.90
24902;DHT22;31328;51.402;0.016;2022-11-18T09:57:01;10.20;99.90
24902;DHT22;31328;51.402;0.016;2022-11-18T09:59:30;10.20;99.90
24902;DHT22;31328;51.402;0.016;2022-11-18T10:02:10;10.20;99.90
24902;DHT22;31328;51.402;0.016;2022-11-18T10:04:44;10.20;99.90
24902;DHT22;31328;51.402;0.016;2022-11-18T10:07:19;10.30;99.90
24902;DHT22;31328;51.402;0.016;2022-11-18T10:09:47;10.30;99.90
24902;DHT22;31328;51.402;0.016;2022-11-18T10:12:34;10.30;99.90
24902;DHT22;31328;51.402;0.016;2022-11-18T10:23:26;10.40;99.90
24902;DHT22;31328;51.402;0.016;2022-11-18T10:25:54;10.40;99.90
24902;DHT22;31328;51.402;0.016;2022-11-18T10:28:23;10.40;99.90
24902;DHT22;31328;51.402;0.016;2022-11-18T10:30:50;10.50;99.90
24902;DHT22;31328;51.402;0.016;2022-11-18T10:33:22;10.50;99.90
24902;DHT22;31328;51.402;0.016;2022-11-18T10:35:49;10.50;99.90
24902;DHT22;31328;51.402;0.016;2022-11-18T10:38:19;10.50;99.90
24902;DHT22;31328;51.402;0.016;2022-11-18T10:41:00;10.50;99.90
24902;DHT22;31328;51.402;0.016;2022-11-18T10:43:53;10.60;99.90
24902;DHT22;31328;51.402;0.016;2022-11-18T10:46:29;10.60;99.90
24902;DHT22;31328;51.402;0.016;2022-11-18T10:51:36;10.70;99.90
24902;DHT22;31328;51.402;0.016;2022-11-18T10:54:14;10.70;99.90
24902;DHT22;31328;51.402;0.016;2022-11-18T10:57:13;10.70;99.90
24902;DHT22;31328;51.402;0.016;2022-11-18T11:02:38;10.80;99.90
24902;DHT22;31328;51.402;0.016;2022-11-18T11:05:21;10.80;99.90
24902;DHT22;31328;51.402;0.016;2022-11-18T11:08:01;10.90;99.90
24902;DHT22;31328;51.402;0.016;2022-11-18T11:10:28;10.90;99.90
24902;DHT22;31328;51.402;0.016;2022-11-18T11:12:59;11.00;99.90
24902;DHT22;31328;51.402;0.016;2022-11-18T11:15:34;11.00;99.90
24902;DHT22;31328;51.402;0.016;2022-11-18T11:18:10;11.10;99.90
24902;DHT22;31328;51.402;0.016;2022-11-18T11:20:57;11.10;99.90
24902;DHT22;31328;51.402;0.016;2022-11-18T11:23:24;11.10;99.90
24902;DHT22;31328;51.402;0.016;2022-11-18T11:26:03;11.10;99.90
24902;DHT22;31328;51.402;0.016;2022-11-18T11:43:16;11.50;99.90
24902;DHT22;31328;51.402;0.016;2022-11-18T11:51:18;11.60;99.90
24902;DHT22;31328;51.402;0.016;2022-11-18T11:54:06;11.60;99.90
24902;DHT22;31328;51.402;0.016;2022-11-18T11:56:48;11.70;99.90
24902;DHT22;31328;51.402;0.016;2022-11-18T12:02:10;11.70;99.90
24902;DHT22;31328;51.402;0.016;2022-11-18T12:05:07;11.70;99.90
24902;DHT22;31328;51.402;0.016;2022-11-18T12:08:16;11.80;99.90
24902;DHT22;31328;51.402;0.016;2022-11-18T12:16:24;11.90;99.90
24902;DHT22;31328;51.402;0.016;2022-11-18T12:19:11;11.90;99.90
24902;DHT22;31328;51.402;0.016;2022-11-18T12:24:32;11.90;99.90
24902;DHT22;31328;51.402;0.016;2022-11-18T12:32:31;12.00;99.90
24902;DHT22;31328;51.402;0.016;2022-11-18T12:35:24;12.00;99.90
24902;DHT22;31328;51.402;0.016;2022-11-18T12:43:03;12.00;99.90
24902;DHT22;31328;51.402;0.016;2022-11-18T12:45:53;12.10;99.90
24902;DHT22;31328;51.402;0.016;2022-11-18T12:51:09;12.10;99.90
24902;DHT22;31328;51.402;0.016;2022-11-18T12:53:50;12.20;99.90
24902;DHT22;31328;51.402;0.016;2022-11-18T12:56:23;12.30;99.90
24902;DHT22;31328;51.402;0.016;2022-11-18T12:58:56;12.30;99.90
24902;DHT22;31328;51.402;0.016;2022-11-18T13:01:26;12.30;99.90
24902;DHT22;31328;51.402;0.016;2022-11-18T13:04:05;12.40;99.90
24902;DHT22;31328;51.402;0.016;2022-11-18T13:06:33;12.40;99.90
24902;DHT22;31328;51.402;0.016;2022-11-18T13:09:03;12.40;99.90
24902;DHT22;31328;51.402;0.016;2022-11-18T13:11:34;12.40;99.90
24902;DHT22;31328;51.402;0.016;2022-11-18T13:17:31;12.50;99.60
24902;DHT22;31328;51.402;0.016;2022-11-18T13:22:53;12.50;99.60
24902;DHT22;31328;51.402;0.016;2022-11-18T13:25:39;12.50;99.60
24902;DHT22;31328;51.402;0.016;2022-11-18T13:28:10;12.50;99.30
24902;DHT22;31328;51.402;0.016;2022-11-18T13:30:58;12.50;99.40
24902;DHT22;31328;51.402;0.016;2022-11-18T13:33:25;12.50;99.30
24902;DHT22;31328;51.402;0.016;2022-11-18T13:35:52;12.50;99.30
24902;DHT22;31328;51.402;0.016;2022-11-18T13:38:23;12.50;99.30
24902;DHT22;31328;51.402;0.016;2022-11-18T13:40:50;12.50;99.30
24902;DHT22;31328;51.402;0.016;2022-11-18T13:43:35;12.50;99.20
24902;DHT22;31328;51.402;0.016;2022-11-18T13:46:18;12.50;99.30
24902;DHT22;31328;51.402;0.016;2022-11-18T13:48:52;12.60;99.30
24902;DHT22;31328;51.402;0.016;2022-11-18T13:51:22;12.50;99.30
24902;DHT22;31328;51.402;0.016;2022-11-18T13:53:48;12.50;99.20
24902;DHT22;31328;51.402;0.016;2022-11-18T13:56:19;12.50;99.20
24902;DHT22;31328;51.402;0.016;2022-11-18T13:58:53;12.50;99.10
24902;DHT22;31328;51.402;0.016;2022-11-18T14:01:22;12.50;99.20
24902;DHT22;31328;51.402;0.016;2022-11-18T14:03:54;12.50;99.20
24902;DHT22;31328;51.402;0.016;2022-11-18T14:11:35;12.50;99.30
24902;DHT22;31328;51.402;0.016;2022-11-18T14:14:01;12.50;99.20
24902;DHT22;31328;51.402;0.016;2022-11-18T14:16:39;12.50;99.10
24902;DHT22;31328;51.402;0.016;2022-11-18T14:19:27;12.50;99.10
24902;DHT22;31328;51.402;0.016;2022-11-18T14:22:02;12.50;99.20
24902;DHT22;31328;51.402;0.016;2022-11-18T14:24:29;12.50;99.20
24902;DHT22;31328;51.402;0.016;2022-11-18T14:26:56;12.50;99.20
24902;DHT22;31328;51.402;0.016;2022-11-18T14:29:22;12.50;99.40
24902;DHT22;31328;51.402;0.016;2022-11-18T14:32:11;12.50;99.30
24902;DHT22;31328;51.402;0.016;2022-11-18T14:34:37;12.50;99.40
24902;DHT22;31328;51.402;0.016;2022-11-18T14:37:12;12.50;99.30
24902;DHT22;31328;51.402;0.016;2022-11-18T14:39:39;12.50;99.30
24902;DHT22;31328;51.402;0.016;2022-11-18T14:42:10;12.50;99.30
24902;DHT22;31328;51.402;0.016;2022-11-18T14:44:37;12.40;99.30
24902;DHT22;31328;51.402;0.016;2022-11-18T14:47:17;12.50;99.30
24902;DHT22;31328;51.402;0.016;2022-11-18T14:49:45;12.40;99.40
24902;DHT22;31328;51.402;0.016;2022-11-18T14:52:11;12.40;99.30
24902;DHT22;31328;51.402;0.016;2022-11-18T14:54:37;12.40;99.40
24902;DHT22;31328;51.402;0.016;2022-11-18T14:57:04;12.40;99.40
24902;DHT22;31328;51.402;0.016;2022-11-18T14:59:30;12.40;99.30
24902;DHT22;31328;51.402;0.016;2022-11-18T15:01:57;12.40;99.20
24902;DHT22;31328;51.402;0.016;2022-11-18T15:04:23;12.40;99.20
24902;DHT22;31328;51.402;0.016;2022-11-18T15:06:51;12.40;99.20
24902;DHT22;31328;51.402;0.016;2022-11-18T15:09:17;12.40;99.20
24902;DHT22;31328;51.402;0.016;2022-11-18T15:11:43;12.40;99.10
24902;DHT22;31328;51.402;0.016;2022-11-18T15:14:09;12.30;99.10
24902;DHT22;31328;51.402;0.016;2022-11-18T15:16:36;12.30;99.00
24902;DHT22;31328;51.402;0.016;2022-11-18T15:19:04;12.30;99.10
24902;DHT22;31328;51.402;0.016;2022-11-18T15:21:31;12.30;99.10
24902;DHT22;31328;51.402;0.016;2022-11-18T15:23:58;12.30;99.10
24902;DHT22;31328;51.402;0.016;2022-11-18T15:26:27;12.30;99.10
24902;DHT22;31328;51.402;0.016;2022-11-18T15:28:56;12.30;99.10
24902;DHT22;31328;51.402;0.016;2022-11-18T15:31:23;12.30;99.00
24902;DHT22;31328;51.402;0.016;2022-11-18T15:33:50;12.30;99.30
24902;DHT22;31328;51.402;0.016;2022-11-18T15:36:19;12.30;99.20
24902;DHT22;31328;51.402;0.016;2022-11-18T15:38:46;12.20;99.20
24902;DHT22;31328;51.402;0.016;2022-11-18T15:43:47;12.20;99.10
24902;DHT22;31328;51.402;0.016;2022-11-18T15:46:15;12.20;99.10
24902;DHT22;31328;51.402;0.016;2022-11-18T15:48:42;12.20;99.30
24902;DHT22;31328;51.402;0.016;2022-11-18T15:51:08;12.20;99.30
24902;DHT22;31328;51.402;0.016;2022-11-18T15:53:34;12.20;99.20
24902;DHT22;31328;51.402;0.016;2022-11-18T15:59:09;12.10;99.20
24902;DHT22;31328;51.402;0.016;2022-11-18T16:01:38;12.10;99.10
24902;DHT22;31328;51.402;0.016;2022-11-18T16:04:06;12.10;99.10
24902;DHT22;31328;51.402;0.016;2022-11-18T16:06:33;12.10;99.10
24902;DHT22;31328;51.402;0.016;2022-11-18T16:09:00;12.00;99.10
24902;DHT22;31328;51.402;0.016;2022-11-18T16:11:27;12.10;99.10
24902;DHT22;31328;51.402;0.016;2022-11-18T16:14:14;12.00;99.10
24902;DHT22;31328;51.402;0.016;2022-11-18T16:16:42;12.00;99.10
24902;DHT22;31328;51.402;0.016;2022-11-18T16:19:11;12.00;99.10
24902;DHT22;31328;51.402;0.016;2022-11-18T16:21:39;12.00;99.10
24902;DHT22;31328;51.402;0.016;2022-11-18T16:24:08;12.00;99.30
24902;DHT22;31328;51.402;0.016;2022-11-18T16:26:34;12.00;99.30
24902;DHT22;31328;51.402;0.016;2022-11-18T16:29:03;12.00;99.30
24902;DHT22;31328;51.402;0.016;2022-11-18T16:31:30;12.00;99.20
24902;DHT22;31328;51.402;0.016;2022-11-18T16:34:07;11.90;99.20
24902;DHT22;31328;51.402;0.016;2022-11-18T16:36:34;11.90;99.20
24902;DHT22;31328;51.402;0.016;2022-11-18T16:39:15;11.90;99.20
24902;DHT22;31328;51.402;0.016;2022-11-18T16:41:42;11.90;99.20
24902;DHT22;31328;51.402;0.016;2022-11-18T16:44:18;11.90;99.20
24902;DHT22;31328;51.402;0.016;2022-11-18T16:46:50;11.90;99.20
24902;DHT22;31328;51.402;0.016;2022-11-18T16:49:19;11.90;99.30
24902;DHT22;31328;51.402;0.016;2022-11-18T16:51:47;11.90;99.30
24902;DHT22;31328;51.402;0.016;2022-11-18T16:54:18;11.90;99.30
24902;DHT22;31328;51.402;0.016;2022-11-18T16:56:46;11.90;99.30
24902;DHT22;31328;51.402;0.016;2022-11-18T16:59:17;11.90;99.40
24902;DHT22;31328;51.402;0.016;2022-11-18T17:01:44;11.80;99.40
24902;DHT22;31328;51.402;0.016;2022-11-18T17:04:10;11.80;99.30
24902;DHT22;31328;51.402;0.016;2022-11-18T17:06:37;11.80;99.30
24902;DHT22;31328;51.402;0.016;2022-11-18T17:09:04;11.80;99.30
24902;DHT22;31328;51.402;0.016;2022-11-18T17:11:31;11.80;99.30
24902;DHT22;31328;51.402;0.016;2022-11-18T17:13:57;11.80;99.30
24902;DHT22;31328;51.402;0.016;2022-11-18T17:16:24;11.80;99.40
24902;DHT22;31328;51.402;0.016;2022-11-18T17:18:55;11.80;99.40
24902;DHT22;31328;51.402;0.016;2022-11-18T17:21:22;11.80;99.40
24902;DHT22;31328;51.402;0.016;2022-11-18T17:23:49;11.80;99.40
24902;DHT22;31328;51.402;0.016;2022-11-18T17:26:18;11.80;99.40
24902;DHT22;31328;51.402;0.016;2022-11-18T17:28:45;11.80;99.40
24902;DHT22;31328;51.402;0.016;2022-11-18T17:31:17;11.80;99.40
24902;DHT22;31328;51.402;0.016;2022-11-18T17:33:44;11.80;99.40
24902;DHT22;31328;51.402;0.016;2022-11-18T17:36:12;11.80;99.40
24902;DHT22;31328;51.402;0.016;2022-11-18T17:38:42;11.80;99.40
24902;DHT22;31328;51.402;0.016;2022-11-18T17:41:11;11.80;99.70